sensor_id;sensor_type;location;lat;lon;timestamp;temperature;humidity
37938;DHT22;23763;48.130;11.602;2023-07-22T00:00:20;16.90;99.90
37938;DHT22;23763;48.130;11.602;2023-07-22T00:02:48;16.90;99.90
37938;DHT22;23763;48.130;11.602;2023-07-22T00:05:13;16.90;99.90
37938;DHT22;23763;48.130;11.602;2023-07-22T00:07:39;16.90;99.90
37938;DHT22;23763;48.130;11.602;2023-07-22T00:10:07;16.90;99.90
37938;DHT22;23763;48.130;11.602;2023-07-22T00:12:34;16.90;99.90
37938;DHT22;23763;48.130;11.602;2023-07-22T00:15:00;16.90;99.90
37938;DHT22;23763;48.130;11.602;2023-07-22T00:17:25;16.90;99.90
37938;DHT22;23763;48.130;11.602;2023-07-22T00:19:51;16.90;99.90
37938;DHT22;23763;48.130;11.602;2023-07-22T00:22:16;16.90;99.90
37938;DHT22;23763;48.130;11.602;2023-07-22T00:24:42;16.90;99.90
37938;DHT22;23763;48.130;11.602;2023-07-22T00:27:08;16.90;99.90
37938;DHT22;23763;48.130;11.602;2023-07-22T00:29:37;16.90;99.90
37938;DHT22;23763;48.130;11.602;2023-07-22T00:32:05;16.90;99.90
37938;DHT22;23763;48.130;11.602;2023-07-22T00:34:34;16.80;99.90
37938;DHT22;23763;48.130;11.602;2023-07-22T00:37:00;16.80;99.90
37938;DHT22;23763;48.130;11.602;2023-07-22T00:39:25;16.80;99.90
37938;DHT22;23763;48.130;11.602;2023-07-22T00:41:51;16.90;99.90
37938;DHT22;23763;48.130;11.602;2023-07-22T00:44:16;16.90;99.90
37938;DHT22;23763;48.130;11.602;2023-07-22T00:46:42;16.80;99.90
37938;DHT22;23763;48.130;11.602;2023-07-22T00:49:08;16.70;99.90
37938;DHT22;23763;48.130;11.602;2023-07-22T00:51:34;16.70;99.90
37938;DHT22;23763;48.130;11.602;2023-07-22T00:54:00;16.70;99.90
37938;DHT22;23763;48.130;11.602;2023-07-22T00:56:25;16.60;99.90
37938;DHT22;23763;48.130;11.602;2023-07-22T00:58:52;16.60;99.90
37938;DHT22;23763;48.130;11.602;2023-07-22T01:01:17;16.60;99.90
37938;DHT22;23763;48.130;11.602;2023-07-22T01:03:43;16.60;99.90
37938;DHT22;23763;48.130;11.602;2023-07-22T01:06:09;16.60;99.90
37938;DHT22;23763;48.130;11.602;2023-07-22T01:08:35;16.50;99.90
37938;DHT22;23763;48.130;11.602;2023-07-22T01:11:01;16.50;99.90
37938;DHT22;23763;48.130;11.602;2023-07-22T01:13:26;16.50;99.90
37938;DHT22;23763;48.130;11.602;2023-07-22T01:15:52;16.50;99.90
37938;DHT22;23763;48.130;11.602;2023-07-22T01:18:18;16.40;99.90
37938;DHT22;23763;48.130;11.602;2023-07-22T01:20:45;16.40;99.90
37938;DHT22;23763;48.130;11.602;2023-07-22T01:23:11;16.40;99.90
37938;DHT22;23763;48.130;11.602;2023-07-22T01:25:37;16.40;99.90
37938;DHT22;23763;48.130;11.602;2023-07-22T01:28:03;16.40;99.90
37938;DHT22;23763;48.130;11.602;2023-07-22T01:30:28;16.40;99.90
37938;DHT22;23763;48.130;11.602;2023-07-22T01:32:54;16.30;99.90
37938;DHT22;23763;48.130;11.602;2023-07-22T01:35:20;16.20;99.90
37938;DHT22;23763;48.130;11.602;2023-07-22T01:37:46;16.20;99.90
37938;DHT22;23763;48.130;11.602;2023-07-22T01:40:12;16.20;99.90
37938;DHT22;23763;48.130;11.602;2023-07-22T01:42:41;16.10;99.90
37938;DHT22;23763;48.130;11.602;2023-07-22T01:45:08;16.00;99.90
37938;DHT22;23763;48.130;11.602;2023-07-22T01:47:35;16.00;99.90
37938;DHT22;23763;48.130;11.602;2023-07-22T01:50:02;15.90;99.90
37938;DHT22;23763;48.130;11.602;2023-07-22T01:52:27;16.00;99.90
37938;DHT22;23763;48.130;11.602;2023-07-22T01:54:53;16.00;99.90
37938;DHT22;23763;48.130;11.602;2023-07-22T01:57:18;16.10;99.90
37938;DHT22;23763;48.130;11.602;2023-07-22T01:59:44;16.20;99.90
37938;DHT22;23763;48.130;11.602;2023-07-22T02:02:10;16.30;99.90
37938;DHT22;23763;48.130;11.602;2023-07-22T02:04:35;16.40;99.90
37938;DHT22;23763;48.130;11.602;2023-07-22T02:07:01;16.40;99.90
37938;DHT22;23763;48.130;11.602;2023-07-22T02:09:26;16.40;99.90
37938;DHT22;23763;48.130;11.602;2023-07-22T02:11:52;16.60;99.90
37938;DHT22;23763;48.130;11.602;2023-07-22T02:14:19;16.60;99.90
37938;DHT22;23763;48.130;11.602;2023-07-22T02:16:44;16.50;99.90
37938;DHT22;23763;48.130;11.602;2023-07-22T02:19:10;16.50;99.90
37938;DHT22;23763;48.130;11.602;2023-07-22T02:21:36;16.40;99.90
37938;DHT22;23763;48.130;11.602;2023-07-22T02:24:01;16.30;99.90
37938;DHT22;23763;48.130;11.602;2023-07-22T02:26:27;16.30;99.90
37938;DHT22;23763;48.130;11.602;2023-07-22T02:28:53;16.30;99.90
37938;DHT22;23763;48.130;11.602;2023-07-22T02:31:20;16.30;99.90
37938;DHT22;23763;48.130;11.602;2023-07-22T02:33:47;16.30;99.90
37938;DHT22;23763;48.130;11.602;2023-07-22T02:36:13;16.20;99.90
37938;DHT22;23763;48.130;11.602;2023-07-22T02:38:38;16.30;99.90
37938;DHT22;23763;48.130;11.602;2023-07-22T02:41:05;16.30;99.90
37938;DHT22;23763;48.130;11.602;2023-07-22T02:43:36;16.20;99.90
37938;DHT22;23763;48.130;11.602;2023-07-22T02:46:02;16.20;99.90
37938;DHT22;23763;48.130;11.602;2023-07-22T02:48:29;16.10;99.90
37938;DHT22;23763;48.130;11.602;2023-07-22T02:50:55;16.10;99.90
37938;DHT22;23763;48.130;11.602;2023-07-22T02:53:20;16.20;99.90
37938;DHT22;23763;48.130;11.602;2023-07-22T02:55:46;16.10;99.90
37938;DHT22;23763;48.130;11.602;2023-07-22T02:58:12;16.20;99.90
37938;DHT22;23763;48.130;11.602;2023-07-22T03:00:38;16.10;99.90
37938;DHT22;23763;48.130;11.602;2023-07-22T03:03:03;16.10;99.90
37938;DHT22;23763;48.130;11.602;2023-07-22T03:05:31;16.00;99.90
37938;DHT22;23763;48.130;11.602;2023-07-22T03:07:58;16.00;99.90
37938;DHT22;23763;48.130;11.602;2023-07-22T03:10:24;15.90;99.90
37938;DHT22;23763;48.130;11.602;2023-07-22T03:12:51;16.00;99.90
37938;DHT22;23763;48.130;11.602;2023-07-22T03:15:23;16.00;99.90
37938;DHT22;23763;48.130;11.602;2023-07-22T03:17:51;16.00;99.90
37938;DHT22;23763;48.130;11.602;2023-07-22T03:20:17;16.10;99.90
37938;DHT22;23763;48.130;11.602;2023-07-22T03:22:45;16.10;99.90
37938;DHT22;23763;48.130;11.602;2023-07-22T03:25:11;16.00;99.90
37938;DHT22;23763;48.130;11.602;2023-07-22T03:27:37;16.00;99.90
37938;DHT22;23763;48.130;11.602;2023-07-22T03:30:04;16.00;99.90
37938;DHT22;23763;48.130;11.602;2023-07-22T03:32:33;15.90;99.90
37938;DHT22;23763;48.130;11.602;2023-07-22T03:34:59;15.90;99.90
37938;DHT22;23763;48.130;11.602;2023-07-22T03:37:25;15.90;99.90
37938;DHT22;23763;48.130;11.602;2023-07-22T03:39:50;15.80;99.90
37938;DHT22;23763;48.130;11.602;2023-07-22T03:42:16;15.90;99.90
37938;DHT22;23763;48.130;11.602;2023-07-22T03:44:42;15.90;99.90
37938;DHT22;23763;48.130;11.602;2023-07-22T03:47:07;16.00;99.90
37938;DHT22;23763;48.130;11.602;2023-07-22T03:49:33;16.00;99.90
37938;DHT22;23763;48.130;11.602;2023-07-22T03:51:58;16.00;99.90
37938;DHT22;23763;48.130;11.602;2023-07-22T03:54:24;16.00;99.90
37938;DHT22;23763;48.130;11.602;2023-07-22T03:56:49;16.00;99.90
37938;DHT22;23763;48.130;11.602;2023-07-22T03:59:15;16.00;99.90
37938;DHT22;23763;48.130;11.602;2023-07-22T04:01:41;16.00;99.90
37938;DHT22;23763;48.130;11.602;2023-07-22T04:04:06;16.00;99.90
37938;DHT22;23763;48.130;11.602;2023-07-22T04:06:32;16.00;99.90
37938;DHT22;23763;48.130;11.602;2023-07-22T04:08:57;16.20;99.90
37938;DHT22;23763;48.130;11.602;2023-07-22T04:11:25;16.30;99.90
37938;DHT22;23763;48.130;11.602;2023-07-22T04:13:51;16.30;99.90
37938;DHT22;23763;48.130;11.602;2023-07-22T04:16:17;16.40;99.90
37938;DHT22;23763;48.130;11.602;2023-07-22T04:18:43;16.40;99.90
37938;DHT22;23763;48.130;11.602;2023-07-22T04:21:08;16.40;99.90
37938;DHT22;23763;48.130;11.602;2023-07-22T04:23:34;16.50;99.90
37938;DHT22;23763;48.130;11.602;2023-07-22T04:26:02;16.50;99.90
37938;DHT22;23763;48.130;11.602;2023-07-22T04:28:30;16.60;99.90
37938;DHT22;23763;48.130;11.602;2023-07-22T04:30:57;16.60;99.90
37938;DHT22;23763;48.130;11.602;2023-07-22T04:33:24;16.60;99.90
37938;DHT22;23763;48.130;11.602;2023-07-22T04:35:50;16.80;99.90
37938;DHT22;23763;48.130;11.602;2023-07-22T04:38:16;16.80;99.90
37938;DHT22;23763;48.130;11.602;2023-07-22T04:40:45;16.80;99.90
37938;DHT22;23763;48.130;11.602;2023-07-22T04:43:10;17.00;99.90
37938;DHT22;23763;48.130;11.602;2023-07-22T04:45:37;17.10;99.90
37938;DHT22;23763;48.130;11.602;2023-07-22T04:48:06;17.20;99.90
37938;DHT22;23763;48.130;11.602;2023-07-22T04:50:31;17.30;99.90
37938;DHT22;23763;48.130;11.602;2023-07-22T04:52:57;17.50;99.90
37938;DHT22;23763;48.130;11.602;2023-07-22T04:55:22;17.60;99.90
37938;DHT22;23763;48.130;11.602;2023-07-22T04:57:48;17.60;99.90
37938;DHT22;23763;48.130;11.602;2023-07-22T05:00:14;17.70;99.90
37938;DHT22;23763;48.130;11.602;2023-07-22T05:02:45;17.70;99.90
37938;DHT22;23763;48.130;11.602;2023-07-22T05:05:15;17.60;99.90
37938;DHT22;23763;48.130;11.602;2023-07-22T05:07:41;17.60;99.90
37938;DHT22;23763;48.130;11.602;2023-07-22T05:10:08;17.70;99.90
37938;DHT22;23763;48.130;11.602;2023-07-22T05:12:38;17.80;99.90
37938;DHT22;23763;48.130;11.602;2023-07-22T05:15:05;17.80;99.90
37938;DHT22;23763;48.130;11.602;2023-07-22T05:17:31;17.80;99.90
37938;DHT22;23763;48.130;11.602;2023-07-22T05:19:57;17.90;99.90
37938;DHT22;23763;48.130;11.602;2023-07-22T05:22:23;18.00;99.90
37938;DHT22;23763;48.130;11.602;2023-07-22T05:24:49;18.10;99.90
37938;DHT22;23763;48.130;11.602;2023-07-22T05:27:15;18.20;99.90
37938;DHT22;23763;48.130;11.602;2023-07-22T05:29:41;18.30;99.90
37938;DHT22;23763;48.130;11.602;2023-07-22T05:32:07;18.40;99.90
37938;DHT22;23763;48.130;11.602;2023-07-22T05:34:33;18.40;99.90
37938;DHT22;23763;48.130;11.602;2023-07-22T05:36:58;18.40;99.90
37938;DHT22;23763;48.130;11.602;2023-07-22T05:39:24;18.40;99.90
37938;DHT22;23763;48.130;11.602;2023-07-22T05:41:50;18.40;99.90
37938;DHT22;23763;48.130;11.602;2023-07-22T05:44:16;18.20;99.90
37938;DHT22;23763;48.130;11.602;2023-07-22T05:46:42;18.10;99.90
37938;DHT22;23763;48.130;11.602;2023-07-22T05:49:08;18.30;99.90
37938;DHT22;23763;48.130;11.602;2023-07-22T05:51:34;18.10;99.90
37938;DHT22;23763;48.130;11.602;2023-07-22T05:53:59;18.20;99.90
37938;DHT22;23763;48.130;11.602;2023-07-22T05:56:25;18.30;99.90
37938;DHT22;23763;48.130;11.602;2023-07-22T05:58:51;18.40;99.90
37938;DHT22;23763;48.130;11.602;2023-07-22T06:01:17;18.40;99.90
37938;DHT22;23763;48.130;11.602;2023-07-22T06:03:42;18.40;99.90
37938;DHT22;23763;48.130;11.602;2023-07-22T06:06:09;18.70;99.90
37938;DHT22;23763;48.130;11.602;2023-07-22T06:08:35;19.00;99.90
37938;DHT22;23763;48.130;11.602;2023-07-22T06:11:01;19.10;99.90
37938;DHT22;23763;48.130;11.602;2023-07-22T06:13:26;19.30;99.90
37938;DHT22;23763;48.130;11.602;2023-07-22T06:15:52;19.40;99.90
37938;DHT22;23763;48.130;11.602;2023-07-22T06:18:18;19.80;99.90
37938;DHT22;23763;48.130;11.602;2023-07-22T06:20:44;19.60;99.90
37938;DHT22;23763;48.130;11.602;2023-07-22T06:23:10;19.50;99.90
37938;DHT22;23763;48.130;11.602;2023-07-22T06:25:35;19.70;99.90
37938;DHT22;23763;48.130;11.602;2023-07-22T06:28:01;19.60;99.90
37938;DHT22;23763;48.130;11.602;2023-07-22T06:30:27;20.00;99.90
37938;DHT22;23763;48.130;11.602;2023-07-22T06:32:53;20.30;99.90
37938;DHT22;23763;48.130;11.602;2023-07-22T06:35:18;20.50;99.90
37938;DHT22;23763;48.130;11.602;2023-07-22T06:37:44;20.70;99.90
37938;DHT22;23763;48.130;11.602;2023-07-22T06:40:10;21.20;99.90
37938;DHT22;23763;48.130;11.602;2023-07-22T06:42:36;21.50;99.90
37938;DHT22;23763;48.130;11.602;2023-07-22T06:45:02;21.60;99.90
37938;DHT22;23763;48.130;11.602;2023-07-22T06:47:28;21.50;99.90
37938;DHT22;23763;48.130;11.602;2023-07-22T06:49:53;21.70;99.90
37938;DHT22;23763;48.130;11.602;2023-07-22T06:52:19;21.50;99.90
37938;DHT22;23763;48.130;11.602;2023-07-22T06:54:44;21.00;99.90
37938;DHT22;23763;48.130;11.602;2023-07-22T06:57:11;21.00;99.90
37938;DHT22;23763;48.130;11.602;2023-07-22T06:59:36;20.80;99.90
37938;DHT22;23763;48.130;11.602;2023-07-22T07:02:03;20.80;99.90
37938;DHT22;23763;48.130;11.602;2023-07-22T07:04:30;21.40;99.90
37938;DHT22;23763;48.130;11.602;2023-07-22T07:06:56;21.50;99.90
37938;DHT22;23763;48.130;11.602;2023-07-22T07:09:21;21.70;99.90
37938;DHT22;23763;48.130;11.602;2023-07-22T07:11:47;21.90;99.90
37938;DHT22;23763;48.130;11.602;2023-07-22T07:14:13;23.80;99.90
37938;DHT22;23763;48.130;11.602;2023-07-22T07:16:38;25.50;99.10
37938;DHT22;23763;48.130;11.602;2023-07-22T07:19:04;25.00;97.10
37938;DHT22;23763;48.130;11.602;2023-07-22T07:21:29;24.20;98.10
37938;DHT22;23763;48.130;11.602;2023-07-22T07:23:55;23.50;99.20
37938;DHT22;23763;48.130;11.602;2023-07-22T07:26:21;23.10;99.80
37938;DHT22;23763;48.130;11.602;2023-07-22T07:28:47;22.70;99.90
37938;DHT22;23763;48.130;11.602;2023-07-22T07:31:13;23.30;99.90
37938;DHT22;23763;48.130;11.602;2023-07-22T07:33:39;24.20;98.60
37938;DHT22;23763;48.130;11.602;2023-07-22T07:36:04;25.20;96.60
37938;DHT22;23763;48.130;11.602;2023-07-22T07:38:31;25.20;95.90
37938;DHT22;23763;48.130;11.602;2023-07-22T07:41:03;25.60;94.00
37938;DHT22;23763;48.130;11.602;2023-07-22T07:43:31;25.60;94.00
37938;DHT22;23763;48.130;11.602;2023-07-22T07:46:17;26.60;92.50
37938;DHT22;23763;48.130;11.602;2023-07-22T07:48:58;27.90;90.50
37938;DHT22;23763;48.130;11.602;2023-07-22T07:51:28;28.90;85.90
37938;DHT22;23763;48.130;11.602;2023-07-22T07:53:55;30.60;82.50
37938;DHT22;23763;48.130;11.602;2023-07-22T07:56:21;31.50;75.70
37938;DHT22;23763;48.130;11.602;2023-07-22T07:58:48;33.00;71.50
37938;DHT22;23763;48.130;11.602;2023-07-22T08:01:14;33.80;66.50
37938;DHT22;23763;48.130;11.602;2023-07-22T08:03:41;33.40;65.80
37938;DHT22;23763;48.130;11.602;2023-07-22T08:06:08;33.20;63.70
37938;DHT22;23763;48.130;11.602;2023-07-22T08:08:34;32.10;64.40
37938;DHT22;23763;48.130;11.602;2023-07-22T08:13:30;33.00;62.50
37938;DHT22;23763;48.130;11.602;2023-07-22T08:16:07;34.30;58.80
37938;DHT22;23763;48.130;11.602;2023-07-22T08:18:33;34.20;57.70
37938;DHT22;23763;48.130;11.602;2023-07-22T08:21:00;33.40;56.70
37938;DHT22;23763;48.130;11.602;2023-07-22T08:23:28;32.90;56.70
37938;DHT22;23763;48.130;11.602;2023-07-22T08:25:53;34.40;57.30
37938;DHT22;23763;48.130;11.602;2023-07-22T08:28:19;34.30;56.10
37938;DHT22;23763;48.130;11.602;2023-07-22T08:30:44;34.30;56.90
37938;DHT22;23763;48.130;11.602;2023-07-22T08:33:11;34.60;55.30
37938;DHT22;23763;48.130;11.602;2023-07-22T08:35:37;34.40;55.70
37938;DHT22;23763;48.130;11.602;2023-07-22T08:38:03;34.20;56.20
37938;DHT22;23763;48.130;11.602;2023-07-22T08:40:52;35.80;54.90
37938;DHT22;23763;48.130;11.602;2023-07-22T08:43:20;35.90;52.60
37938;DHT22;23763;48.130;11.602;2023-07-22T08:45:47;35.10;53.00
37938;DHT22;23763;48.130;11.602;2023-07-22T08:48:15;35.30;51.60
37938;DHT22;23763;48.130;11.602;2023-07-22T08:50:52;35.00;51.40
37938;DHT22;23763;48.130;11.602;2023-07-22T08:53:18;35.90;51.60
37938;DHT22;23763;48.130;11.602;2023-07-22T08:55:45;35.00;51.80
37938;DHT22;23763;48.130;11.602;2023-07-22T08:58:11;35.30;52.10
37938;DHT22;23763;48.130;11.602;2023-07-22T09:00:38;35.40;50.80
37938;DHT22;23763;48.130;11.602;2023-07-22T09:03:05;35.40;52.80
37938;DHT22;23763;48.130;11.602;2023-07-22T09:05:35;35.30;51.20
37938;DHT22;23763;48.130;11.602;2023-07-22T09:08:06;34.60;52.00
37938;DHT22;23763;48.130;11.602;2023-07-22T09:10:33;33.60;53.00
37938;DHT22;23763;48.130;11.602;2023-07-22T09:13:00;32.60;54.20
37938;DHT22;23763;48.130;11.602;2023-07-22T09:15:26;31.60;55.60
37938;DHT22;23763;48.130;11.602;2023-07-22T09:17:52;30.60;58.10
37938;DHT22;23763;48.130;11.602;2023-07-22T09:20:19;29.50;59.60
37938;DHT22;23763;48.130;11.602;2023-07-22T09:22:50;28.60;60.00
37938;DHT22;23763;48.130;11.602;2023-07-22T09:25:21;28.30;59.90
37938;DHT22;23763;48.130;11.602;2023-07-22T09:27:48;27.80;60.30
37938;DHT22;23763;48.130;11.602;2023-07-22T09:30:25;27.60;61.70
37938;DHT22;23763;48.130;11.602;2023-07-22T09:32:52;27.40;62.50
37938;DHT22;23763;48.130;11.602;2023-07-22T09:35:19;27.10;62.70
37938;DHT22;23763;48.130;11.602;2023-07-22T09:37:45;26.80;64.50
37938;DHT22;23763;48.130;11.602;2023-07-22T09:40:29;26.50;65.90
37938;DHT22;23763;48.130;11.602;2023-07-22T09:42:56;26.40;65.80
37938;DHT22;23763;48.130;11.602;2023-07-22T09:45:23;25.90;66.50
37938;DHT22;23763;48.130;11.602;2023-07-22T09:47:51;25.90;67.00
37938;DHT22;23763;48.130;11.602;2023-07-22T09:50:24;25.90;67.90
37938;DHT22;23763;48.130;11.602;2023-07-22T09:52:55;26.10;66.30
37938;DHT22;23763;48.130;11.602;2023-07-22T09:55:25;26.20;67.10
37938;DHT22;23763;48.130;11.602;2023-07-22T09:57:53;26.40;66.70
37938;DHT22;23763;48.130;11.602;2023-07-22T10:00:19;26.30;65.70
37938;DHT22;23763;48.130;11.602;2023-07-22T10:02:47;26.40;65.60
37938;DHT22;23763;48.130;11.602;2023-07-22T10:05:16;26.30;65.50
37938;DHT22;23763;48.130;11.602;2023-07-22T10:07:53;26.00;66.20
37938;DHT22;23763;48.130;11.602;2023-07-22T10:10:30;26.10;66.10
37938;DHT22;23763;48.130;11.602;2023-07-22T10:12:56;26.10;65.30
37938;DHT22;23763;48.130;11.602;2023-07-22T10:15:25;26.10;66.00
37938;DHT22;23763;48.130;11.602;2023-07-22T10:17:51;26.30;65.70
37938;DHT22;23763;48.130;11.602;2023-07-22T10:20:19;26.30;65.70
37938;DHT22;23763;48.130;11.602;2023-07-22T10:22:46;26.50;65.60
37938;DHT22;23763;48.130;11.602;2023-07-22T10:25:17;26.50;65.50
37938;DHT22;23763;48.130;11.602;2023-07-22T10:27:44;26.40;65.80
37938;DHT22;23763;48.130;11.602;2023-07-22T10:30:11;26.30;65.50
37938;DHT22;23763;48.130;11.602;2023-07-22T10:32:50;26.30;65.30
37938;DHT22;23763;48.130;11.602;2023-07-22T10:37:49;25.90;63.90
37938;DHT22;23763;48.130;11.602;2023-07-22T10:40:25;25.70;64.80
37938;DHT22;23763;48.130;11.602;2023-07-22T10:42:58;25.60;64.50
37938;DHT22;23763;48.130;11.602;2023-07-22T10:45:25;25.30;64.60
37938;DHT22;23763;48.130;11.602;2023-07-22T10:48:12;25.20;65.60
37938;DHT22;23763;48.130;11.602;2023-07-22T10:50:52;25.40;66.50
37938;DHT22;23763;48.130;11.602;2023-07-22T10:53:29;25.50;65.70
37938;DHT22;23763;48.130;11.602;2023-07-22T10:56:21;25.40;66.80
37938;DHT22;23763;48.130;11.602;2023-07-22T11:06:52;25.20;66.00
37938;DHT22;23763;48.130;11.602;2023-07-22T11:14:37;25.30;65.80
37938;DHT22;23763;48.130;11.602;2023-07-22T11:17:05;25.40;66.50
37938;DHT22;23763;48.130;11.602;2023-07-22T11:19:31;25.70;65.70
37938;DHT22;23763;48.130;11.602;2023-07-22T11:21:58;25.80;66.50
37938;DHT22;23763;48.130;11.602;2023-07-22T11:24:24;25.60;65.90
37938;DHT22;23763;48.130;11.602;2023-07-22T11:26:51;25.40;66.00
37938;DHT22;23763;48.130;11.602;2023-07-22T11:29:18;25.50;65.90
37938;DHT22;23763;48.130;11.602;2023-07-22T11:31:46;25.60;66.10
37938;DHT22;23763;48.130;11.602;2023-07-22T11:34:13;25.70;65.70
37938;DHT22;23763;48.130;11.602;2023-07-22T11:36:39;25.80;65.60
37938;DHT22;23763;48.130;11.602;2023-07-22T11:41:32;25.80;65.70
37938;DHT22;23763;48.130;11.602;2023-07-22T11:43:59;25.80;65.90
37938;DHT22;23763;48.130;11.602;2023-07-22T11:46:26;25.70;66.80
37938;DHT22;23763;48.130;11.602;2023-07-22T11:48:52;25.80;65.30
37938;DHT22;23763;48.130;11.602;2023-07-22T11:51:23;26.00;66.60
37938;DHT22;23763;48.130;11.602;2023-07-22T11:53:51;26.00;65.10
37938;DHT22;23763;48.130;11.602;2023-07-22T11:56:26;25.60;66.30
37938;DHT22;23763;48.130;11.602;2023-07-22T11:58:53;25.40;66.40
37938;DHT22;23763;48.130;11.602;2023-07-22T12:01:19;25.20;66.40
37938;DHT22;23763;48.130;11.602;2023-07-22T12:03:45;25.30;67.20
37938;DHT22;23763;48.130;11.602;2023-07-22T12:06:11;25.30;67.10
37938;DHT22;23763;48.130;11.602;2023-07-22T12:08:44;25.40;66.90
37938;DHT22;23763;48.130;11.602;2023-07-22T12:11:19;25.40;67.10
37938;DHT22;23763;48.130;11.602;2023-07-22T12:13:45;25.60;65.70
37938;DHT22;23763;48.130;11.602;2023-07-22T12:16:12;25.90;65.80
37938;DHT22;23763;48.130;11.602;2023-07-22T12:18:46;25.70;64.90
37938;DHT22;23763;48.130;11.602;2023-07-22T12:21:12;25.50;65.40
37938;DHT22;23763;48.130;11.602;2023-07-22T12:23:38;25.60;65.70
37938;DHT22;23763;48.130;11.602;2023-07-22T12:26:05;25.70;66.10
37938;DHT22;23763;48.130;11.602;2023-07-22T12:28:31;25.70;65.50
37938;DHT22;23763;48.130;11.602;2023-07-22T12:30:57;25.60;65.20
37938;DHT22;23763;48.130;11.602;2023-07-22T12:33:23;25.40;65.80
37938;DHT22;23763;48.130;11.602;2023-07-22T12:35:56;25.10;65.60
37938;DHT22;23763;48.130;11.602;2023-07-22T12:38:22;25.00;65.90
37938;DHT22;23763;48.130;11.602;2023-07-22T12:40:48;25.20;67.50
37938;DHT22;23763;48.130;11.602;2023-07-22T12:43:14;25.20;66.70
37938;DHT22;23763;48.130;11.602;2023-07-22T12:45:39;25.30;65.70
37938;DHT22;23763;48.130;11.602;2023-07-22T12:48:05;25.40;66.90
37938;DHT22;23763;48.130;11.602;2023-07-22T12:50:31;25.10;65.00
37938;DHT22;23763;48.130;11.602;2023-07-22T12:52:58;24.80;65.70
37938;DHT22;23763;48.130;11.602;2023-07-22T12:55:24;24.90;66.20
37938;DHT22;23763;48.130;11.602;2023-07-22T12:57:50;25.10;66.20
37938;DHT22;23763;48.130;11.602;2023-07-22T13:00:15;25.20;64.80
37938;DHT22;23763;48.130;11.602;2023-07-22T13:02:41;25.30;66.10
37938;DHT22;23763;48.130;11.602;2023-07-22T13:05:07;25.30;65.80
37938;DHT22;23763;48.130;11.602;2023-07-22T13:07:33;25.30;65.80
37938;DHT22;23763;48.130;11.602;2023-07-22T13:10:01;25.30;65.40
37938;DHT22;23763;48.130;11.602;2023-07-22T13:12:28;25.00;65.40
37938;DHT22;23763;48.130;11.602;2023-07-22T13:14:54;25.00;65.90
37938;DHT22;23763;48.130;11.602;2023-07-22T13:17:20;25.20;67.20
37938;DHT22;23763;48.130;11.602;2023-07-22T13:19:46;25.40;65.70
37938;DHT22;23763;48.130;11.602;2023-07-22T13:22:11;25.60;66.30
37938;DHT22;23763;48.130;11.602;2023-07-22T13:24:37;25.70;66.10
37938;DHT22;23763;48.130;11.602;2023-07-22T13:27:03;25.60;66.20
37938;DHT22;23763;48.130;11.602;2023-07-22T13:29:29;25.50;66.90
37938;DHT22;23763;48.130;11.602;2023-07-22T13:31:54;25.40;66.00
37938;DHT22;23763;48.130;11.602;2023-07-22T13:34:20;25.40;66.30
37938;DHT22;23763;48.130;11.602;2023-07-22T13:36:46;25.50;66.80
37938;DHT22;23763;48.130;11.602;2023-07-22T13:39:11;25.70;66.30
37938;DHT22;23763;48.130;11.602;2023-07-22T13:41:37;25.70;64.70
37938;DHT22;23763;48.130;11.602;2023-07-22T13:44:03;25.80;64.70
37938;DHT22;23763;48.130;11.602;2023-07-22T13:46:28;26.00;63.80
37938;DHT22;23763;48.130;11.602;2023-07-22T13:48:54;26.00;65.50
37938;DHT22;23763;48.130;11.602;2023-07-22T13:51:20;26.20;64.20
37938;DHT22;23763;48.130;11.602;2023-07-22T13:53:45;26.30;64.70
37938;DHT22;23763;48.130;11.602;2023-07-22T13:56:11;26.10;63.20
37938;DHT22;23763;48.130;11.602;2023-07-22T13:58:36;26.00;63.60
37938;DHT22;23763;48.130;11.602;2023-07-22T14:01:02;26.00;63.00
37938;DHT22;23763;48.130;11.602;2023-07-22T14:03:28;26.10;63.40
37938;DHT22;23763;48.130;11.602;2023-07-22T14:05:53;25.90;63.60
37938;DHT22;23763;48.130;11.602;2023-07-22T14:08:19;25.80;64.30
37938;DHT22;23763;48.130;11.602;2023-07-22T14:10:44;25.80;63.90
37938;DHT22;23763;48.130;11.602;2023-07-22T14:13:10;25.90;62.90
37938;DHT22;23763;48.130;11.602;2023-07-22T14:15:36;26.00;62.10
37938;DHT22;23763;48.130;11.602;2023-07-22T14:18:02;26.10;62.30
37938;DHT22;23763;48.130;11.602;2023-07-22T14:20:28;26.20;61.90
37938;DHT22;23763;48.130;11.602;2023-07-22T14:22:56;26.10;62.00
37938;DHT22;23763;48.130;11.602;2023-07-22T14:25:21;25.80;62.90
37938;DHT22;23763;48.130;11.602;2023-07-22T14:27:47;25.70;63.20
37938;DHT22;23763;48.130;11.602;2023-07-22T14:30:13;25.90;61.80
37938;DHT22;23763;48.130;11.602;2023-07-22T14:32:38;25.90;61.20
37938;DHT22;23763;48.130;11.602;2023-07-22T14:35:04;25.80;61.00
37938;DHT22;23763;48.130;11.602;2023-07-22T14:37:30;25.80;61.00
37938;DHT22;23763;48.130;11.602;2023-07-22T14:39:56;25.70;60.80
37938;DHT22;23763;48.130;11.602;2023-07-22T14:42:21;25.70;62.20
37938;DHT22;23763;48.130;11.602;2023-07-22T14:44:47;25.60;62.00
37938;DHT22;23763;48.130;11.602;2023-07-22T14:47:12;25.50;60.60
37938;DHT22;23763;48.130;11.602;2023-07-22T14:49:38;25.60;61.40
37938;DHT22;23763;48.130;11.602;2023-07-22T14:52:04;25.80;61.20
37938;DHT22;23763;48.130;11.602;2023-07-22T14:54:29;25.80;60.50
37938;DHT22;23763;48.130;11.602;2023-07-22T14:56:55;25.60;60.80
37938;DHT22;23763;48.130;11.602;2023-07-22T14:59:20;25.40;61.00
37938;DHT22;23763;48.130;11.602;2023-07-22T15:01:46;25.30;61.30
37938;DHT22;23763;48.130;11.602;2023-07-22T15:04:12;25.50;61.00
37938;DHT22;23763;48.130;11.602;2023-07-22T15:06:37;25.80;61.20
37938;DHT22;23763;48.130;11.602;2023-07-22T15:09:03;25.80;62.10
37938;DHT22;23763;48.130;11.602;2023-07-22T15:11:34;26.00;60.90
37938;DHT22;23763;48.130;11.602;2023-07-22T15:14:00;25.80;60.20
37938;DHT22;23763;48.130;11.602;2023-07-22T15:16:25;25.60;61.00
37938;DHT22;23763;48.130;11.602;2023-07-22T15:18:51;25.40;61.70
37938;DHT22;23763;48.130;11.602;2023-07-22T15:21:17;25.40;61.80
37938;DHT22;23763;48.130;11.602;2023-07-22T15:23:42;25.50;62.70
37938;DHT22;23763;48.130;11.602;2023-07-22T15:26:08;25.50;61.90
37938;DHT22;23763;48.130;11.602;2023-07-22T15:28:34;25.40;61.40
37938;DHT22;23763;48.130;11.602;2023-07-22T15:30:59;25.20;62.00
37938;DHT22;23763;48.130;11.602;2023-07-22T15:33:25;25.30;62.10